EGGW

London Luton Airport

London, United Kingdom
METAR EGGW 230550Z AUTO 02008KT 340V090 6000 -RA FEW007 SCT018 BKN030 09/08 Q1013
Observed Flight Rules
Sep-23 @ 05:50 UTC (45 minutes ago) Marginal Visual Flight Rules
Wind Visibility Clouds Conditions
20° at 8 knots 6,003 meters
Temperatures Readings
Current 9°C / 48°F
Dewpoint 8°C / 46°F
Humidity 94%
Altimeter 29.91" Hg
Pressure 1013 hPa
Elevation 160
METAR EGGW 230550Z AUTO 02008KT 340V090 6000 -RA FEW007 SCT018 BKN030 09/08 Q1013
Observed Flight Rules
Sep-23 @ 05:50 UTC
(45 minutes ago)
MVFR
Wind Visibility
20° at 8 knots 6,003 meters
Clouds
Conditions
Temperature Dewpoint
9°C / 48°F 8°C / 46°F
Humidity Altimeter Pressure
94% 29.91" Hg 1013 hPa